sensor_id;sensor_type;location;lat;lon;timestamp;P1;durP1;ratioP1;P2;durP2;ratioP2
24447;SDS011;13348;50.984;5.822;2022-09-30T00:02:24;7.45;;;6.22;;
24447;SDS011;13348;50.984;5.822;2022-09-30T00:04:51;7.47;;;5.53;;
24447;SDS011;13348;50.984;5.822;2022-09-30T00:07:18;9.13;;;5.53;;
24447;SDS011;13348;50.984;5.822;2022-09-30T00:09:45;7.68;;;5.80;;
24447;SDS011;13348;50.984;5.822;2022-09-30T00:12:13;8.48;;;5.82;;
24447;SDS011;13348;50.984;5.822;2022-09-30T00:14:41;7.95;;;6.07;;
24447;SDS011;13348;50.984;5.822;2022-09-30T00:17:08;8.93;;;5.78;;
24447;SDS011;13348;50.984;5.822;2022-09-30T00:19:35;13.50;;;6.05;;
24447;SDS011;13348;50.984;5.822;2022-09-30T00:22:03;9.32;;;6.40;;
24447;SDS011;13348;50.984;5.822;2022-09-30T00:24:30;6.57;;;5.97;;
24447;SDS011;13348;50.984;5.822;2022-09-30T00:26:57;8.75;;;6.75;;
24447;SDS011;13348;50.984;5.822;2022-09-30T00:29:25;13.63;;;6.70;;
24447;SDS011;13348;50.984;5.822;2022-09-30T00:31:53;9.20;;;6.82;;
24447;SDS011;13348;50.984;5.822;2022-09-30T00:34:20;8.00;;;6.22;;
24447;SDS011;13348;50.984;5.822;2022-09-30T00:36:49;7.13;;;6.43;;
24447;SDS011;13348;50.984;5.822;2022-09-30T00:39:19;9.77;;;6.10;;
24447;SDS011;13348;50.984;5.822;2022-09-30T00:41:48;9.95;;;6.53;;
24447;SDS011;13348;50.984;5.822;2022-09-30T00:50:14;9.07;;;6.53;;
24447;SDS011;13348;50.984;5.822;2022-09-30T00:52:47;11.43;;;6.70;;
24447;SDS011;13348;50.984;5.822;2022-09-30T00:55:20;10.68;;;6.15;;
24447;SDS011;13348;50.984;5.822;2022-09-30T00:57:53;7.78;;;6.25;;
24447;SDS011;13348;50.984;5.822;2022-09-30T01:00:22;10.45;;;6.80;;
24447;SDS011;13348;50.984;5.822;2022-09-30T01:02:50;10.50;;;6.68;;
24447;SDS011;13348;50.984;5.822;2022-09-30T01:05:19;7.13;;;6.27;;
24447;SDS011;13348;50.984;5.822;2022-09-30T01:07:46;9.10;;;5.72;;
24447;SDS011;13348;50.984;5.822;2022-09-30T01:10:14;8.48;;;6.35;;
24447;SDS011;13348;50.984;5.822;2022-09-30T01:12:41;9.30;;;6.78;;
24447;SDS011;13348;50.984;5.822;2022-09-30T01:15:09;7.50;;;6.43;;
24447;SDS011;13348;50.984;5.822;2022-09-30T01:17:40;8.73;;;6.65;;
24447;SDS011;13348;50.984;5.822;2022-09-30T01:20:28;12.30;;;7.07;;
24447;SDS011;13348;50.984;5.822;2022-09-30T01:23:41;9.90;;;6.85;;
24447;SDS011;13348;50.984;5.822;2022-09-30T01:26:36;7.85;;;6.65;;
24447;SDS011;13348;50.984;5.822;2022-09-30T01:29:23;8.88;;;6.82;;
24447;SDS011;13348;50.984;5.822;2022-09-30T01:32:09;9.55;;;7.13;;
24447;SDS011;13348;50.984;5.822;2022-09-30T01:34:49;6.63;;;5.93;;
24447;SDS011;13348;50.984;5.822;2022-09-30T01:37:25;8.32;;;6.82;;
24447;SDS011;13348;50.984;5.822;2022-09-30T01:40:02;8.48;;;6.53;;
24447;SDS011;13348;50.984;5.822;2022-09-30T01:42:35;12.57;;;6.55;;
24447;SDS011;13348;50.984;5.822;2022-09-30T01:45:11;9.77;;;6.82;;
24447;SDS011;13348;50.984;5.822;2022-09-30T01:47:44;10.55;;;6.80;;
24447;SDS011;13348;50.984;5.822;2022-09-30T01:50:17;9.45;;;7.10;;
24447;SDS011;13348;50.984;5.822;2022-09-30T01:52:48;10.23;;;7.85;;
24447;SDS011;13348;50.984;5.822;2022-09-30T01:55:24;8.80;;;7.20;;
24447;SDS011;13348;50.984;5.822;2022-09-30T01:57:57;7.88;;;6.82;;
24447;SDS011;13348;50.984;5.822;2022-09-30T02:00:30;8.30;;;7.47;;
24447;SDS011;13348;50.984;5.822;2022-09-30T02:03:04;8.88;;;6.85;;
24447;SDS011;13348;50.984;5.822;2022-09-30T02:05:36;8.32;;;7.05;;
24447;SDS011;13348;50.984;5.822;2022-09-30T02:08:07;12.65;;;7.78;;
24447;SDS011;13348;50.984;5.822;2022-09-30T02:10:43;12.40;;;7.72;;
24447;SDS011;13348;50.984;5.822;2022-09-30T02:13:13;10.35;;;7.53;;
24447;SDS011;13348;50.984;5.822;2022-09-30T02:15:44;8.60;;;7.80;;
24447;SDS011;13348;50.984;5.822;2022-09-30T02:18:18;9.20;;;7.30;;
24447;SDS011;13348;50.984;5.822;2022-09-30T02:20:52;10.40;;;7.43;;
24447;SDS011;13348;50.984;5.822;2022-09-30T02:23:25;11.68;;;7.68;;
24447;SDS011;13348;50.984;5.822;2022-09-30T02:25:54;11.23;;;8.05;;
24447;SDS011;13348;50.984;5.822;2022-09-30T02:28:30;9.73;;;7.40;;
24447;SDS011;13348;50.984;5.822;2022-09-30T02:30:58;9.63;;;8.00;;
24447;SDS011;13348;50.984;5.822;2022-09-30T02:33:30;15.27;;;8.13;;
24447;SDS011;13348;50.984;5.822;2022-09-30T02:36:01;9.20;;;8.23;;
24447;SDS011;13348;50.984;5.822;2022-09-30T02:38:32;9.05;;;7.65;;
24447;SDS011;13348;50.984;5.822;2022-09-30T02:41:05;9.07;;;8.15;;
24447;SDS011;13348;50.984;5.822;2022-09-30T02:43:35;9.20;;;7.32;;
24447;SDS011;13348;50.984;5.822;2022-09-30T02:46:07;11.77;;;8.68;;
24447;SDS011;13348;50.984;5.822;2022-09-30T02:48:42;13.27;;;8.02;;
24447;SDS011;13348;50.984;5.822;2022-09-30T02:51:14;11.57;;;8.07;;
24447;SDS011;13348;50.984;5.822;2022-09-30T02:53:50;11.50;;;8.48;;
24447;SDS011;13348;50.984;5.822;2022-09-30T02:56:25;13.20;;;8.10;;
24447;SDS011;13348;50.984;5.822;2022-09-30T02:58:59;10.85;;;8.48;;
24447;SDS011;13348;50.984;5.822;2022-09-30T03:01:26;13.73;;;8.05;;
24447;SDS011;13348;50.984;5.822;2022-09-30T03:03:58;9.40;;;8.10;;
24447;SDS011;13348;50.984;5.822;2022-09-30T03:06:28;9.60;;;7.95;;
24447;SDS011;13348;50.984;5.822;2022-09-30T03:08:56;8.77;;;7.90;;
24447;SDS011;13348;50.984;5.822;2022-09-30T03:11:24;9.85;;;8.82;;
24447;SDS011;13348;50.984;5.822;2022-09-30T03:14:01;12.80;;;9.10;;
24447;SDS011;13348;50.984;5.822;2022-09-30T03:16:47;10.60;;;8.77;;
24447;SDS011;13348;50.984;5.822;2022-09-30T03:19:37;9.10;;;8.18;;
24447;SDS011;13348;50.984;5.822;2022-09-30T03:22:17;13.88;;;9.10;;
24447;SDS011;13348;50.984;5.822;2022-09-30T03:25:02;11.40;;;8.77;;
24447;SDS011;13348;50.984;5.822;2022-09-30T03:27:53;9.93;;;8.65;;
24447;SDS011;13348;50.984;5.822;2022-09-30T03:30:27;10.27;;;8.60;;
24447;SDS011;13348;50.984;5.822;2022-09-30T03:33:04;11.20;;;8.73;;
24447;SDS011;13348;50.984;5.822;2022-09-30T03:35:39;9.80;;;8.50;;
24447;SDS011;13348;50.984;5.822;2022-09-30T03:38:14;9.60;;;8.07;;
24447;SDS011;13348;50.984;5.822;2022-09-30T03:40:53;10.68;;;8.98;;
24447;SDS011;13348;50.984;5.822;2022-09-30T03:43:28;10.32;;;8.70;;
24447;SDS011;13348;50.984;5.822;2022-09-30T03:46:00;9.63;;;8.18;;
24447;SDS011;13348;50.984;5.822;2022-09-30T03:48:33;13.23;;;8.77;;
24447;SDS011;13348;50.984;5.822;2022-09-30T03:51:04;9.13;;;8.13;;
24447;SDS011;13348;50.984;5.822;2022-09-30T03:53:36;10.85;;;8.48;;
24447;SDS011;13348;50.984;5.822;2022-09-30T03:56:05;10.45;;;8.35;;
24447;SDS011;13348;50.984;5.822;2022-09-30T03:58:32;12.10;;;9.35;;
24447;SDS011;13348;50.984;5.822;2022-09-30T04:01:00;13.15;;;9.32;;
24447;SDS011;13348;50.984;5.822;2022-09-30T04:03:27;10.45;;;9.38;;
24447;SDS011;13348;50.984;5.822;2022-09-30T04:05:54;10.40;;;9.32;;
24447;SDS011;13348;50.984;5.822;2022-09-30T04:08:23;10.95;;;9.80;;
24447;SDS011;13348;50.984;5.822;2022-09-30T04:10:51;11.25;;;10.02;;
24447;SDS011;13348;50.984;5.822;2022-09-30T04:13:18;11.88;;;9.75;;
24447;SDS011;13348;50.984;5.822;2022-09-30T04:15:51;16.17;;;10.52;;
24447;SDS011;13348;50.984;5.822;2022-09-30T04:18:19;11.90;;;9.63;;
24447;SDS011;13348;50.984;5.822;2022-09-30T04:20:46;11.05;;;9.88;;
24447;SDS011;13348;50.984;5.822;2022-09-30T04:23:13;13.27;;;10.35;;
24447;SDS011;13348;50.984;5.822;2022-09-30T04:25:42;11.23;;;9.65;;
24447;SDS011;13348;50.984;5.822;2022-09-30T04:28:16;10.55;;;8.63;;
24447;SDS011;13348;50.984;5.822;2022-09-30T04:30:43;8.48;;;7.32;;
24447;SDS011;13348;50.984;5.822;2022-09-30T04:33:11;9.32;;;8.40;;
24447;SDS011;13348;50.984;5.822;2022-09-30T04:35:38;8.75;;;7.53;;
24447;SDS011;13348;50.984;5.822;2022-09-30T04:38:05;9.10;;;7.03;;
24447;SDS011;13348;50.984;5.822;2022-09-30T04:40:35;11.15;;;8.73;;
24447;SDS011;13348;50.984;5.822;2022-09-30T04:43:04;10.50;;;8.13;;
24447;SDS011;13348;50.984;5.822;2022-09-30T04:45:32;9.30;;;7.53;;
24447;SDS011;13348;50.984;5.822;2022-09-30T04:47:59;9.40;;;7.82;;
24447;SDS011;13348;50.984;5.822;2022-09-30T04:50:26;10.45;;;8.32;;
24447;SDS011;13348;50.984;5.822;2022-09-30T04:52:54;14.38;;;8.30;;
24447;SDS011;13348;50.984;5.822;2022-09-30T04:55:21;9.93;;;7.85;;
24447;SDS011;13348;50.984;5.822;2022-09-30T04:57:49;8.90;;;8.00;;
24447;SDS011;13348;50.984;5.822;2022-09-30T05:00:17;9.98;;;8.60;;
24447;SDS011;13348;50.984;5.822;2022-09-30T05:02:44;10.10;;;8.90;;
24447;SDS011;13348;50.984;5.822;2022-09-30T05:05:12;8.98;;;8.07;;
24447;SDS011;13348;50.984;5.822;2022-09-30T05:07:39;9.75;;;8.85;;
24447;SDS011;13348;50.984;5.822;2022-09-30T05:10:07;11.88;;;9.18;;
24447;SDS011;13348;50.984;5.822;2022-09-30T05:12:35;16.30;;;9.70;;
24447;SDS011;13348;50.984;5.822;2022-09-30T05:15:02;11.80;;;10.45;;
24447;SDS011;13348;50.984;5.822;2022-09-30T05:17:32;14.32;;;9.95;;
24447;SDS011;13348;50.984;5.822;2022-09-30T05:19:59;12.02;;;10.30;;
24447;SDS011;13348;50.984;5.822;2022-09-30T05:22:27;11.45;;;10.25;;
24447;SDS011;13348;50.984;5.822;2022-09-30T05:24:54;11.02;;;9.93;;
24447;SDS011;13348;50.984;5.822;2022-09-30T05:27:22;11.40;;;9.52;;
24447;SDS011;13348;50.984;5.822;2022-09-30T05:29:50;11.57;;;9.75;;
24447;SDS011;13348;50.984;5.822;2022-09-30T05:32:17;10.13;;;9.15;;
24447;SDS011;13348;50.984;5.822;2022-09-30T05:34:46;9.88;;;8.88;;
24447;SDS011;13348;50.984;5.822;2022-09-30T05:37:14;12.25;;;9.45;;
24447;SDS011;13348;50.984;5.822;2022-09-30T05:39:41;10.50;;;8.98;;
24447;SDS011;13348;50.984;5.822;2022-09-30T05:42:08;10.57;;;9.57;;
24447;SDS011;13348;50.984;5.822;2022-09-30T05:44:36;16.58;;;9.15;;
24447;SDS011;13348;50.984;5.822;2022-09-30T05:47:03;11.18;;;9.85;;
24447;SDS011;13348;50.984;5.822;2022-09-30T05:49:30;10.55;;;9.45;;
24447;SDS011;13348;50.984;5.822;2022-09-30T05:52:00;14.23;;;10.93;;
24447;SDS011;13348;50.984;5.822;2022-09-30T05:54:28;16.30;;;11.48;;
24447;SDS011;13348;50.984;5.822;2022-09-30T05:56:55;12.48;;;10.90;;
24447;SDS011;13348;50.984;5.822;2022-09-30T05:59:23;14.65;;;11.15;;
24447;SDS011;13348;50.984;5.822;2022-09-30T06:01:50;13.93;;;11.55;;
24447;SDS011;13348;50.984;5.822;2022-09-30T06:04:18;14.93;;;10.77;;
24447;SDS011;13348;50.984;5.822;2022-09-30T06:06:45;13.60;;;10.02;;
24447;SDS011;13348;50.984;5.822;2022-09-30T06:09:14;13.65;;;9.80;;
24447;SDS011;13348;50.984;5.822;2022-09-30T06:11:42;11.45;;;10.10;;
24447;SDS011;13348;50.984;5.822;2022-09-30T06:14:09;11.65;;;10.07;;
24447;SDS011;13348;50.984;5.822;2022-09-30T06:16:36;14.65;;;11.93;;
24447;SDS011;13348;50.984;5.822;2022-09-30T06:19:03;13.55;;;10.68;;
24447;SDS011;13348;50.984;5.822;2022-09-30T06:21:31;11.82;;;10.35;;
24447;SDS011;13348;50.984;5.822;2022-09-30T06:23:58;11.40;;;10.20;;
24447;SDS011;13348;50.984;5.822;2022-09-30T06:26:27;11.57;;;10.38;;
24447;SDS011;13348;50.984;5.822;2022-09-30T06:28:54;10.68;;;9.57;;
24447;SDS011;13348;50.984;5.822;2022-09-30T06:31:22;10.25;;;9.18;;
24447;SDS011;13348;50.984;5.822;2022-09-30T06:33:51;10.55;;;9.18;;
24447;SDS011;13348;50.984;5.822;2022-09-30T06:36:18;13.93;;;9.05;;
24447;SDS011;13348;50.984;5.822;2022-09-30T06:38:47;11.48;;;9.32;;
24447;SDS011;13348;50.984;5.822;2022-09-30T06:41:18;14.00;;;10.93;;
24447;SDS011;13348;50.984;5.822;2022-09-30T06:43:47;14.00;;;11.88;;
24447;SDS011;13348;50.984;5.822;2022-09-30T06:46:14;16.55;;;11.25;;
24447;SDS011;13348;50.984;5.822;2022-09-30T06:48:42;16.40;;;11.15;;
24447;SDS011;13348;50.984;5.822;2022-09-30T06:51:09;15.68;;;10.93;;
24447;SDS011;13348;50.984;5.822;2022-09-30T06:53:36;16.55;;;10.93;;
24447;SDS011;13348;50.984;5.822;2022-09-30T06:56:04;10.57;;;9.57;;
24447;SDS011;13348;50.984;5.822;2022-09-30T06:58:32;13.57;;;11.10;;
24447;SDS011;13348;50.984;5.822;2022-09-30T07:01:02;12.75;;;11.10;;
24447;SDS011;13348;50.984;5.822;2022-09-30T07:03:31;11.88;;;10.68;;
24447;SDS011;13348;50.984;5.822;2022-09-30T07:06:00;13.63;;;11.60;;
24447;SDS011;13348;50.984;5.822;2022-09-30T07:08:30;19.45;;;10.75;;
24447;SDS011;13348;50.984;5.822;2022-09-30T07:10:59;12.32;;;10.90;;
24447;SDS011;13348;50.984;5.822;2022-09-30T07:13:28;13.93;;;11.52;;
24447;SDS011;13348;50.984;5.822;2022-09-30T07:15:55;15.05;;;12.93;;
24447;SDS011;13348;50.984;5.822;2022-09-30T07:18:24;16.67;;;13.68;;
24447;SDS011;13348;50.984;5.822;2022-09-30T07:20:53;14.07;;;12.63;;
24447;SDS011;13348;50.984;5.822;2022-09-30T07:23:21;13.98;;;12.50;;
24447;SDS011;13348;50.984;5.822;2022-09-30T07:25:51;16.52;;;12.73;;
24447;SDS011;13348;50.984;5.822;2022-09-30T07:28:21;20.50;;;13.43;;
24447;SDS011;13348;50.984;5.822;2022-09-30T07:30:52;17.35;;;12.38;;
24447;SDS011;13348;50.984;5.822;2022-09-30T07:33:20;13.95;;;12.45;;
24447;SDS011;13348;50.984;5.822;2022-09-30T07:35:52;17.40;;;13.02;;
24447;SDS011;13348;50.984;5.822;2022-09-30T07:38:21;15.82;;;13.82;;
24447;SDS011;13348;50.984;5.822;2022-09-30T07:40:51;16.02;;;12.68;;
24447;SDS011;13348;50.984;5.822;2022-09-30T07:43:19;14.75;;;10.27;;
24447;SDS011;13348;50.984;5.822;2022-09-30T07:45:47;17.13;;;12.93;;
24447;SDS011;13348;50.984;5.822;2022-09-30T07:48:15;13.77;;;12.38;;
24447;SDS011;13348;50.984;5.822;2022-09-30T07:51:04;13.38;;;11.50;;
24447;SDS011;13348;50.984;5.822;2022-09-30T07:53:31;16.55;;;12.20;;
24447;SDS011;13348;50.984;5.822;2022-09-30T07:56:01;19.33;;;11.35;;
24447;SDS011;13348;50.984;5.822;2022-09-30T07:58:29;15.00;;;11.27;;
24447;SDS011;13348;50.984;5.822;2022-09-30T08:00:56;16.67;;;12.98;;
24447;SDS011;13348;50.984;5.822;2022-09-30T08:03:23;17.45;;;13.02;;
24447;SDS011;13348;50.984;5.822;2022-09-30T08:05:51;22.02;;;12.55;;
24447;SDS011;13348;50.984;5.822;2022-09-30T08:08:19;15.48;;;12.20;;
24447;SDS011;13348;50.984;5.822;2022-09-30T08:10:47;14.10;;;12.60;;
24447;SDS011;13348;50.984;5.822;2022-09-30T08:13:14;15.00;;;11.90;;
24447;SDS011;13348;50.984;5.822;2022-09-30T08:15:41;15.43;;;11.52;;
24447;SDS011;13348;50.984;5.822;2022-09-30T08:18:09;18.02;;;12.38;;
24447;SDS011;13348;50.984;5.822;2022-09-30T08:20:36;14.45;;;12.73;;
24447;SDS011;13348;50.984;5.822;2022-09-30T08:23:03;14.32;;;12.80;;
24447;SDS011;13348;50.984;5.822;2022-09-30T08:25:32;14.00;;;11.52;;
24447;SDS011;13348;50.984;5.822;2022-09-30T08:28:00;14.48;;;11.00;;
24447;SDS011;13348;50.984;5.822;2022-09-30T08:30:27;12.75;;;11.45;;
24447;SDS011;13348;50.984;5.822;2022-09-30T08:32:54;12.50;;;11.23;;
24447;SDS011;13348;50.984;5.822;2022-09-30T08:35:23;12.80;;;9.93;;
24447;SDS011;13348;50.984;5.822;2022-09-30T08:37:50;13.07;;;10.40;;
24447;SDS011;13348;50.984;5.822;2022-09-30T08:40:19;11.93;;;9.75;;
24447;SDS011;13348;50.984;5.822;2022-09-30T08:42:57;11.95;;;9.68;;
24447;SDS011;13348;50.984;5.822;2022-09-30T08:45:35;9.90;;;8.90;;
24447;SDS011;13348;50.984;5.822;2022-09-30T08:48:19;9.77;;;8.77;;
24447;SDS011;13348;50.984;5.822;2022-09-30T08:50:57;11.27;;;8.18;;
24447;SDS011;13348;50.984;5.822;2022-09-30T08:53:32;9.30;;;7.72;;
24447;SDS011;13348;50.984;5.822;2022-09-30T08:56:01;9.77;;;8.55;;
24447;SDS011;13348;50.984;5.822;2022-09-30T08:58:31;11.52;;;9.35;;
24447;SDS011;13348;50.984;5.822;2022-09-30T09:01:04;12.15;;;9.18;;
24447;SDS011;13348;50.984;5.822;2022-09-30T09:03:39;11.25;;;8.77;;
24447;SDS011;13348;50.984;5.822;2022-09-30T09:06:17;11.90;;;9.23;;
24447;SDS011;13348;50.984;5.822;2022-09-30T09:08:58;9.13;;;7.88;;
24447;SDS011;13348;50.984;5.822;2022-09-30T09:11:51;10.90;;;7.65;;
24447;SDS011;13348;50.984;5.822;2022-09-30T09:14:38;8.07;;;7.18;;
24447;SDS011;13348;50.984;5.822;2022-09-30T09:17:23;14.13;;;7.60;;
24447;SDS011;13348;50.984;5.822;2022-09-30T09:20:02;10.60;;;6.60;;
24447;SDS011;13348;50.984;5.822;2022-09-30T09:22:38;8.85;;;6.80;;
24447;SDS011;13348;50.984;5.822;2022-09-30T09:25:10;7.20;;;6.45;;
24447;SDS011;13348;50.984;5.822;2022-09-30T09:27:43;6.85;;;6.25;;
24447;SDS011;13348;50.984;5.822;2022-09-30T09:30:19;7.18;;;6.40;;
24447;SDS011;13348;50.984;5.822;2022-09-30T09:32:50;10.20;;;6.05;;
24447;SDS011;13348;50.984;5.822;2022-09-30T09:35:25;10.05;;;5.97;;
24447;SDS011;13348;50.984;5.822;2022-09-30T09:38:03;8.52;;;6.85;;
24447;SDS011;13348;50.984;5.822;2022-09-30T09:40:55;6.68;;;6.07;;
24447;SDS011;13348;50.984;5.822;2022-09-30T09:43:34;10.75;;;6.88;;
24447;SDS011;13348;50.984;5.822;2022-09-30T09:46:14;9.88;;;6.40;;
24447;SDS011;13348;50.984;5.822;2022-09-30T09:48:55;7.53;;;6.63;;
24447;SDS011;13348;50.984;5.822;2022-09-30T09:52:02;7.97;;;6.65;;
24447;SDS011;13348;50.984;5.822;2022-09-30T09:54:51;9.65;;;6.28;;
24447;SDS011;13348;50.984;5.822;2022-09-30T09:57:21;13.02;;;7.38;;
24447;SDS011;13348;50.984;5.822;2022-09-30T09:59:55;8.40;;;7.40;;
24447;SDS011;13348;50.984;5.822;2022-09-30T10:02:26;8.30;;;6.82;;
24447;SDS011;13348;50.984;5.822;2022-09-30T10:04:55;9.35;;;7.13;;
24447;SDS011;13348;50.984;5.822;2022-09-30T10:07:28;8.93;;;7.22;;
24447;SDS011;13348;50.984;5.822;2022-09-30T10:10:04;9.60;;;8.25;;
24447;SDS011;13348;50.984;5.822;2022-09-30T10:12:35;8.52;;;7.63;;
24447;SDS011;13348;50.984;5.822;2022-09-30T10:15:03;10.95;;;8.85;;
24447;SDS011;13348;50.984;5.822;2022-09-30T10:17:42;10.70;;;8.57;;
24447;SDS011;13348;50.984;5.822;2022-09-30T10:20:20;10.95;;;8.48;;
24447;SDS011;13348;50.984;5.822;2022-09-30T10:22:59;9.90;;;9.00;;
24447;SDS011;13348;50.984;5.822;2022-09-30T10:25:28;12.18;;;8.93;;
